Time;durP1;ratioP1;P1;durP2;ratioP2;P2;SDS_P1;SDS_P2;PMS_P1;PMS_P2;Temp;Humidity;BMP_temperature;BMP_pressure;BME280_temperature;BME280_humidity;BME280_pressure;Samples;Min_cycle;Max_cycle;Signal;HPM_P1;HPM_P2
2022/04/17 00:00:28;;;;;;;23.50;14.63;;;;;;;;;;6259457;28;20132;-69
2022/04/17 00:03:30;;;;;;;10.80;6.20;;;;;;;;;;6258844;28;20992;-70
2022/04/17 00:06:32;;;;;;;11.70;5.43;;;;;;;;;;6259533;28;20136;-70
2022/04/17 00:09:35;;;;;;;9.13;4.22;;;;;;;;;;6257327;28;20084;-70
2022/04/17 00:12:36;;;;;;;6.68;3.70;;;;;;;;;;6252905;28;20049;-71
2022/04/17 00:15:38;;;;;;;3.90;2.80;;;;;;;;;;6257035;28;20392;-71
2022/04/17 00:18:39;;;;;;;6.85;2.80;;;;;;;;;;6254536;28;20079;-70
2022/04/17 00:21:41;;;;;;;3.28;2.20;;;;;;;;;;6265209;28;20096;-71
2022/04/17 00:24:44;;;;;;;4.38;2.30;;;;;;;;;;6258746;28;20083;-71
2022/04/17 00:27:46;;;;;;;3.88;2.40;;;;;;;;;;6250849;28;20096;-70
2022/04/17 00:30:48;;;;;;;4.68;2.33;;;;;;;;;;6253479;28;20045;-71
2022/04/17 00:33:50;;;;;;;2.67;2.22;;;;;;;;;;6253987;28;20398;-71
2022/04/17 00:36:51;;;;;;;4.32;2.63;;;;;;;;;;6252484;28;20503;-71
2022/04/17 00:39:54;;;;;;;4.65;2.10;;;;;;;;;;6254690;28;20552;-71
2022/04/17 00:42:58;;;;;;;2.20;2.00;;;;;;;;;;6257481;28;20513;-71
2022/04/17 00:46:00;;;;;;;2.58;2.10;;;;;;;;;;6255837;28;20049;-71
2022/04/17 00:49:01;;;;;;;3.45;2.05;;;;;;;;;;6258985;28;20382;-71
2022/04/17 00:52:04;;;;;;;4.53;2.70;;;;;;;;;;6259050;28;20045;-72
2022/04/17 00:55:08;;;;;;;2.83;1.83;;;;;;;;;;6256316;28;20045;-68
2022/04/17 00:58:10;;;;;;;2.08;1.30;;;;;;;;;;6247220;28;20081;-70
2022/04/17 01:01:12;;;;;;;4.38;1.90;;;;;;;;;;6252266;28;20045;-69
2022/04/17 01:04:14;;;;;;;5.50;1.90;;;;;;;;;;6254965;28;20033;-69
2022/04/17 01:07:16;;;;;;;2.85;1.63;;;;;;;;;;6254487;28;20073;-69
2022/04/17 01:10:20;;;;;;;2.53;1.95;;;;;;;;;;6256874;28;20045;-71
2022/04/17 01:13:21;;;;;;;2.72;1.80;;;;;;;;;;6255259;28;20462;-71
2022/04/17 01:16:24;;;;;;;1.65;1.30;;;;;;;;;;6256783;28;20120;-71
2022/04/17 01:19:25;;;;;;;3.72;1.95;;;;;;;;;;6258293;28;20124;-71
2022/04/17 01:22:28;;;;;;;3.80;2.00;;;;;;;;;;6258354;28;20048;-71
2022/04/17 01:28:49;;;;;;;3.83;2.15;;;;;;;;;;6262066;28;20049;-71
2022/04/17 01:31:51;;;;;;;3.70;1.67;;;;;;;;;;6262504;28;20114;-71
2022/04/17 01:34:53;;;;;;;2.67;1.58;;;;;;;;;;6263553;28;20539;-71
2022/04/17 01:37:56;;;;;;;3.63;1.60;;;;;;;;;;6263268;28;20409;-71
2022/04/17 01:40:57;;;;;;;3.83;1.90;;;;;;;;;;6266885;28;20556;-71
2022/04/17 01:43:59;;;;;;;2.97;1.60;;;;;;;;;;6269785;28;20079;-71
2022/04/17 01:47:02;;;;;;;1.80;1.30;;;;;;;;;;6265046;28;20684;-71
2022/04/17 01:50:04;;;;;;;2.40;1.90;;;;;;;;;;6263959;28;20041;-71
2022/04/17 01:53:08;;;;;;;7.47;1.60;;;;;;;;;;6261036;28;20041;-71
2022/04/17 01:56:09;;;;;;;5.45;1.80;;;;;;;;;;6257564;28;20405;-72
2022/04/17 01:59:12;;;;;;;2.35;1.40;;;;;;;;;;6254064;28;20450;-71
2022/04/17 02:02:14;;;;;;;3.92;1.42;;;;;;;;;;6252952;28;20407;-71
2022/04/17 02:05:15;;;;;;;2.13;1.40;;;;;;;;;;6254366;28;20068;-71
2022/04/17 02:08:18;;;;;;;2.45;1.20;;;;;;;;;;6256942;28;20072;-71
2022/04/17 02:11:20;;;;;;;3.80;1.70;;;;;;;;;;6255618;28;20132;-71
2022/04/17 02:14:22;;;;;;;1.90;1.50;;;;;;;;;;6257639;28;20073;-72
2022/04/17 02:17:24;;;;;;;2.17;1.30;;;;;;;;;;6258537;28;20049;-72
2022/04/17 02:20:26;;;;;;;3.47;1.50;;;;;;;;;;6261622;28;20057;-71
2022/04/17 02:23:29;;;;;;;1.73;1.25;;;;;;;;;;6261839;28;20051;-71
2022/04/17 02:26:31;;;;;;;1.48;1.35;;;;;;;;;;6259341;28;20912;-72
2022/04/17 02:29:33;;;;;;;1.80;1.60;;;;;;;;;;6259755;28;20134;-71
2022/04/17 02:32:35;;;;;;;2.00;1.45;;;;;;;;;;6258172;28;20048;-71
2022/04/17 02:35:36;;;;;;;2.22;1.35;;;;;;;;;;6263931;28;20386;-70
2022/04/17 02:38:40;;;;;;;1.42;1.20;;;;;;;;;;6259061;28;20140;-71
2022/04/17 02:41:41;;;;;;;2.38;1.20;;;;;;;;;;6265111;28;20049;-69
2022/04/17 02:44:43;;;;;;;2.83;1.35;;;;;;;;;;6260072;28;20056;-71
2022/04/17 02:47:46;;;;;;;2.55;1.85;;;;;;;;;;6263138;28;20037;-71
2022/04/17 02:50:48;;;;;;;2.75;1.60;;;;;;;;;;6267163;28;20053;-70
2022/04/17 02:53:51;;;;;;;4.95;1.75;;;;;;;;;;6255408;28;20435;-70
2022/04/17 02:56:52;;;;;;;4.30;1.20;;;;;;;;;;6251759;28;20362;-73
2022/04/17 02:59:54;;;;;;;2.40;1.27;;;;;;;;;;6251030;28;20077;-71
2022/04/17 03:06:15;;;;;;;1.80;1.08;;;;;;;;;;6251872;28;20061;-70
2022/04/17 03:09:18;;;;;;;2.85;1.20;;;;;;;;;;6252756;28;20042;-71
2022/04/17 03:12:19;;;;;;;2.67;1.42;;;;;;;;;;6255254;28;20064;-71
2022/04/17 03:15:21;;;;;;;4.15;1.38;;;;;;;;;;6257294;28;20049;-71
2022/04/17 03:18:22;;;;;;;1.80;1.33;;;;;;;;;;6254850;28;20508;-71
2022/04/17 03:21:24;;;;;;;3.28;1.25;;;;;;;;;;6256740;28;20063;-72
2022/04/17 03:24:27;;;;;;;3.38;1.00;;;;;;;;;;6256614;28;20127;-71
2022/04/17 03:27:29;;;;;;;1.88;1.38;;;;;;;;;;6257047;28;20158;-71
2022/04/17 03:30:30;;;;;;;1.58;0.93;;;;;;;;;;6255980;28;20606;-71
2022/04/17 03:33:32;;;;;;;1.95;1.02;;;;;;;;;;6261014;28;20100;-70
2022/04/17 03:36:35;;;;;;;2.35;1.20;;;;;;;;;;6258651;28;20154;-70
2022/04/17 03:39:38;;;;;;;1.80;1.33;;;;;;;;;;6255939;28;20056;-71
2022/04/17 03:42:40;;;;;;;1.73;1.10;;;;;;;;;;6258613;28;20041;-71
2022/04/17 03:45:41;;;;;;;1.67;1.10;;;;;;;;;;6262064;28;20374;-71
2022/04/17 03:48:43;;;;;;;9.30;1.27;;;;;;;;;;6254487;28;20503;-71
2022/04/17 03:51:44;;;;;;;3.33;1.23;;;;;;;;;;6269504;28;20186;-71
2022/04/17 03:54:48;;;;;;;2.80;1.10;;;;;;;;;;6261222;28;20115;-71
2022/04/17 03:57:49;;;;;;;2.90;1.10;;;;;;;;;;6265531;28;20546;-71
2022/04/17 04:00:51;;;;;;;2.20;1.50;;;;;;;;;;6259170;28;20059;-72
2022/04/17 04:03:53;;;;;;;3.05;1.20;;;;;;;;;;6257585;28;20171;-71
2022/04/17 04:06:54;;;;;;;3.40;1.30;;;;;;;;;;6258438;28;20515;-71
2022/04/17 04:09:57;;;;;;;3.53;1.30;;;;;;;;;;6249537;28;20453;-72
2022/04/17 04:12:59;;;;;;;3.78;1.38;;;;;;;;;;6251120;28;20056;-72
2022/04/17 04:16:01;;;;;;;2.38;1.30;;;;;;;;;;6250430;28;20037;-72
2022/04/17 04:19:05;;;;;;;4.35;1.25;;;;;;;;;;6253088;28;20063;-71
2022/04/17 04:22:06;;;;;;;5.50;1.50;;;;;;;;;;6257879;28;20058;-72
2022/04/17 04:25:10;;;;;;;3.45;1.27;;;;;;;;;;6256494;28;20049;-72
2022/04/17 04:31:42;;;;;;;4.38;1.33;;;;;;;;;;6176293;28;20057;-71
2022/04/17 04:34:44;;;;;;;4.25;1.48;;;;;;;;;;6176741;28;20133;-71
2022/04/17 04:37:45;;;;;;;4.70;1.48;;;;;;;;;;6174760;28;20172;-71
2022/04/17 04:40:48;;;;;;;2.58;1.40;;;;;;;;;;6178457;28;20940;-70
2022/04/17 04:43:50;;;;;;;3.58;1.20;;;;;;;;;;6177336;28;20071;-71
2022/04/17 04:46:51;;;;;;;1.77;1.38;;;;;;;;;;6179530;28;20054;-71
2022/04/17 04:49:53;;;;;;;2.92;1.48;;;;;;;;;;6176943;28;20078;-71
2022/04/17 04:52:54;;;;;;;5.70;1.30;;;;;;;;;;6176918;28;20120;-69
2022/04/17 04:55:57;;;;;;;5.93;1.42;;;;;;;;;;6179501;28;20100;-72
2022/04/17 04:58:59;;;;;;;5.65;1.85;;;;;;;;;;6178893;28;20135;-72
2022/04/17 05:02:00;;;;;;;3.30;1.52;;;;;;;;;;6182149;28;20120;-72
2022/04/17 05:05:02;;;;;;;4.50;1.70;;;;;;;;;;6207078;28;20123;-72
2022/04/17 05:08:04;;;;;;;4.25;1.55;;;;;;;;;;6261183;28;20120;-71
2022/04/17 05:11:07;;;;;;;2.70;1.60;;;;;;;;;;6259827;28;20041;-71
2022/04/17 05:14:09;;;;;;;6.72;1.70;;;;;;;;;;6260712;28;20123;-73
2022/04/17 05:17:11;;;;;;;3.63;1.40;;;;;;;;;;6261537;28;20038;-71
2022/04/17 05:20:15;;;;;;;3.03;1.50;;;;;;;;;;6261321;28;20052;-71
2022/04/17 05:23:18;;;;;;;5.55;1.80;;;;;;;;;;6260504;28;20050;-72
2022/04/17 05:26:23;;;;;;;7.30;1.63;;;;;;;;;;6259685;28;20138;-72
2022/04/17 05:29:24;;;;;;;4.07;1.65;;;;;;;;;;6260189;28;20046;-72
2022/04/17 05:32:26;;;;;;;3.17;1.52;;;;;;;;;;6258791;28;20416;-72
2022/04/17 05:35:28;;;;;;;4.00;1.63;;;;;;;;;;6262872;28;20128;-72
2022/04/17 05:38:30;;;;;;;3.53;1.67;;;;;;;;;;6258622;28;20145;-72
2022/04/17 05:41:33;;;;;;;7.18;2.70;;;;;;;;;;6259743;28;20053;-72
2022/04/17 05:44:35;;;;;;;3.42;1.77;;;;;;;;;;6263865;28;20044;-72
2022/04/17 05:47:37;;;;;;;5.65;1.80;;;;;;;;;;6263429;28;20513;-72
2022/04/17 05:50:40;;;;;;;4.60;1.70;;;;;;;;;;6255536;28;20050;-72
2022/04/17 05:53:42;;;;;;;6.93;1.90;;;;;;;;;;6257563;28;20109;-72
2022/04/17 05:56:45;;;;;;;4.07;1.50;;;;;;;;;;6257965;28;20057;-72
2022/04/17 05:59:47;;;;;;;9.63;1.85;;;;;;;;;;6256822;28;20073;-72
2022/04/17 06:02:49;;;;;;;7.30;2.08;;;;;;;;;;6257988;28;20076;-72
2022/04/17 06:05:51;;;;;;;6.85;2.00;;;;;;;;;;6260317;28;20119;-72
2022/04/17 06:08:52;;;;;;;5.50;1.80;;;;;;;;;;6257019;28;20048;-72
2022/04/17 06:11:55;;;;;;;6.47;2.50;;;;;;;;;;6260713;28;20133;-70
2022/04/17 06:14:57;;;;;;;6.30;1.88;;;;;;;;;;6261300;28;20045;-71
2022/04/17 06:17:59;;;;;;;4.68;1.65;;;;;;;;;;6262136;28;20124;-70
2022/04/17 06:21:01;;;;;;;6.90;1.90;;;;;;;;;;6261359;28;20067;-71
2022/04/17 06:24:03;;;;;;;9.40;2.35;;;;;;;;;;6262341;28;20190;-71
2022/04/17 06:27:06;;;;;;;6.00;2.53;;;;;;;;;;6259894;28;20057;-71
2022/04/17 06:30:10;;;;;;;5.88;2.10;;;;;;;;;;6265565;28;20064;-71
2022/04/17 06:33:12;;;;;;;4.00;1.85;;;;;;;;;;6264926;28;20041;-72
2022/04/17 06:36:13;;;;;;;4.60;1.95;;;;;;;;;;6263087;28;20048;-71
2022/04/17 06:39:15;;;;;;;6.20;2.05;;;;;;;;;;6263107;28;20071;-72
2022/04/17 06:42:18;;;;;;;7.80;1.90;;;;;;;;;;6259209;28;20091;-71
2022/04/17 06:45:20;;;;;;;8.05;1.88;;;;;;;;;;6258455;28;20056;-71
2022/04/17 06:48:23;;;;;;;4.82;2.00;;;;;;;;;;6253613;28;20100;-72
2022/04/17 06:51:25;;;;;;;8.95;2.28;;;;;;;;;;6252963;28;20790;-72
2022/04/17 06:54:27;;;;;;;4.97;2.00;;;;;;;;;;6258445;28;20186;-71
2022/04/17 06:57:30;;;;;;;5.40;1.90;;;;;;;;;;6256640;28;20076;-72
2022/04/17 07:00:32;;;;;;;6.05;2.42;;;;;;;;;;6251103;28;20096;-72
2022/04/17 07:03:34;;;;;;;6.82;2.72;;;;;;;;;;6257875;28;20522;-73
2022/04/17 07:06:36;;;;;;;4.65;2.00;;;;;;;;;;6255320;28;20412;-72
2022/04/17 07:09:37;;;;;;;4.88;2.17;;;;;;;;;;6256366;28;20065;-71
2022/04/17 07:12:42;;;;;;;4.57;2.13;;;;;;;;;;6257962;28;20052;-71
2022/04/17 07:15:43;;;;;;;5.15;1.80;;;;;;;;;;6259951;28;20049;-72
2022/04/17 07:18:45;;;;;;;6.82;2.17;;;;;;;;;;6242135;28;20045;-72
2022/04/17 07:21:47;;;;;;;6.05;1.90;;;;;;;;;;6259782;28;20059;-72
2022/04/17 07:24:53;;;;;;;4.28;1.75;;;;;;;;;;6262248;28;20069;-72
2022/04/17 07:27:56;;;;;;;6.47;1.90;;;;;;;;;;6260370;28;20091;-72
2022/04/17 07:30:58;;;;;;;5.93;2.08;;;;;;;;;;6259805;28;20141;-72
2022/04/17 07:33:59;;;;;;;4.45;1.60;;;;;;;;;;6260701;28;20125;-72
2022/04/17 07:37:01;;;;;;;3.90;1.95;;;;;;;;;;6261929;28;20044;-72
2022/04/17 07:40:03;;;;;;;5.05;2.20;;;;;;;;;;6264686;28;20442;-73
2022/04/17 07:43:06;;;;;;;5.43;2.03;;;;;;;;;;6262817;28;20049;-72
2022/04/17 07:46:08;;;;;;;5.63;2.03;;;;;;;;;;6263979;28;20339;-73
2022/04/17 07:49:10;;;;;;;6.53;1.80;;;;;;;;;;6261087;28;20143;-72
2022/04/17 07:52:11;;;;;;;4.10;1.80;;;;;;;;;;6263284;28;20124;-72
2022/04/17 07:55:15;;;;;;;7.43;2.05;;;;;;;;;;6259114;28;20041;-72
2022/04/17 07:58:25;;;;;;;4.97;2.15;;;;;;;;;;6256856;28;20064;-73
2022/04/17 08:01:27;;;;;;;5.85;2.38;;;;;;;;;;6252526;28;20064;-73
2022/04/17 08:04:30;;;;;;;4.82;2.10;;;;;;;;;;6252130;28;20103;-72
2022/04/17 08:07:32;;;;;;;3.25;1.98;;;;;;;;;;6258761;28;20516;-71
2022/04/17 08:10:34;;;;;;;8.85;2.33;;;;;;;;;;6256660;28;20098;-72
2022/04/17 08:13:37;;;;;;;3.58;2.08;;;;;;;;;;6259109;28;20053;-72
2022/04/17 08:16:38;;;;;;;5.22;2.90;;;;;;;;;;6258302;28;20053;-72
2022/04/17 08:19:40;;;;;;;8.23;2.10;;;;;;;;;;6257320;28;20184;-72
2022/04/17 08:22:42;;;;;;;5.93;2.38;;;;;;;;;;6258191;28;20687;-72
2022/04/17 08:25:43;;;;;;;6.07;2.25;;;;;;;;;;6256249;28;20045;-72
2022/04/17 08:28:46;;;;;;;6.43;2.42;;;;;;;;;;6260721;28;20104;-72
2022/04/17 08:31:48;;;;;;;5.97;2.30;;;;;;;;;;6262851;28;20130;-72
2022/04/17 08:34:49;;;;;;;7.13;2.28;;;;;;;;;;6266182;28;20444;-72
2022/04/17 08:37:52;;;;;;;6.55;2.45;;;;;;;;;;6263546;28;20194;-73
2022/04/17 08:40:57;;;;;;;5.93;2.47;;;;;;;;;;6262825;28;20041;-72
2022/04/17 08:44:00;;;;;;;6.88;2.53;;;;;;;;;;6264304;28;20555;-72
2022/04/17 08:47:02;;;;;;;7.95;2.55;;;;;;;;;;6258948;28;20459;-72
2022/04/17 08:50:06;;;;;;;5.35;2.22;;;;;;;;;;6261495;28;20103;-73
2022/04/17 08:53:08;;;;;;;5.05;2.10;;;;;;;;;;6256741;28;20068;-73
2022/04/17 08:56:10;;;;;;;4.97;2.17;;;;;;;;;;6258484;28;20167;-72
2022/04/17 08:59:13;;;;;;;2.65;1.73;;;;;;;;;;6262126;28;20800;-72
2022/04/17 09:02:16;;;;;;;4.68;2.22;;;;;;;;;;6261675;28;20052;-73
2022/04/17 09:05:19;;;;;;;6.85;2.42;;;;;;;;;;6263585;28;20052;-73
2022/04/17 09:08:21;;;;;;;5.05;2.70;;;;;;;;;;6264439;28;20617;-73
2022/04/17 09:11:25;;;;;;;6.63;2.42;;;;;;;;;;6256042;28;20067;-73
2022/04/17 09:14:29;;;;;;;4.80;2.38;;;;;;;;;;6260016;28;20049;-73
2022/04/17 09:17:30;;;;;;;8.18;2.83;;;;;;;;;;6257630;28;20239;-73
2022/04/17 09:20:32;;;;;;;6.68;2.35;;;;;;;;;;6259222;28;20204;-74
2022/04/17 09:23:36;;;;;;;5.18;2.13;;;;;;;;;;6260661;28;20532;-73
2022/04/17 09:26:38;;;;;;;5.43;2.45;;;;;;;;;;6262146;28;20050;-73
2022/04/17 09:29:41;;;;;;;5.20;2.20;;;;;;;;;;6261359;28;20057;-72
2022/04/17 09:32:43;;;;;;;6.38;2.30;;;;;;;;;;6262173;28;20338;-73
2022/04/17 09:35:54;;;;;;;5.43;2.53;;;;;;;;;;6263172;28;20080;-71
2022/04/17 09:39:11;;;;;;;5.50;2.38;;;;;;;;;;6264548;28;20132;-73
2022/04/17 09:42:13;;;;;;;5.22;2.30;;;;;;;;;;6260892;28;20849;-72
2022/04/17 09:45:16;;;;;;;4.90;2.13;;;;;;;;;;6253417;28;20065;-71
2022/04/17 09:48:18;;;;;;;3.75;1.92;;;;;;;;;;6254576;28;20107;-72
2022/04/17 09:51:22;;;;;;;4.97;2.13;;;;;;;;;;6255868;28;20452;-72
2022/04/17 09:54:23;;;;;;;11.52;2.53;;;;;;;;;;6258417;28;20051;-72
2022/04/17 09:57:30;;;;;;;8.95;2.20;;;;;;;;;;6263080;28;20144;-72
2022/04/17 10:00:42;;;;;;;4.97;2.20;;;;;;;;;;6260977;28;20559;-72
2022/04/17 10:03:44;;;;;;;5.95;2.42;;;;;;;;;;6259900;28;20069;-74
2022/04/17 10:06:46;;;;;;;4.32;1.85;;;;;;;;;;6257781;28;20049;-71
2022/04/17 10:09:48;;;;;;;5.53;3.07;;;;;;;;;;6260320;28;20104;-71
2022/04/17 10:12:50;;;;;;;6.15;2.45;;;;;;;;;;6259936;28;20443;-72
2022/04/17 10:15:53;;;;;;;4.80;2.38;;;;;;;;;;6260066;28;20132;-72
2022/04/17 10:18:54;;;;;;;7.53;2.50;;;;;;;;;;6255469;28;20425;-74
2022/04/17 10:22:00;;;;;;;3.95;2.30;;;;;;;;;;6262321;28;20573;-75
2022/04/17 10:25:03;;;;;;;8.02;2.63;;;;;;;;;;6254514;28;20136;-75
2022/04/17 10:28:07;;;;;;;5.90;2.50;;;;;;;;;;6253110;28;20162;-74
2022/04/17 10:31:17;;;;;;;4.05;1.98;;;;;;;;;;6259231;28;20176;-75
2022/04/17 10:34:38;;;;;;;4.07;2.25;;;;;;;;;;6259556;28;20052;-75
2022/04/17 10:38:30;;;;;;;4.43;2.45;;;;;;;;;;6259949;28;20088;-74
2022/04/17 10:41:32;;;;;;;4.28;2.50;;;;;;;;;;6248184;28;20056;-74
2022/04/17 10:44:37;;;;;;;9.80;2.43;;;;;;;;;;6256582;28;20061;-75
2022/04/17 10:47:40;;;;;;;5.90;3.10;;;;;;;;;;6252145;28;20056;-75
2022/04/17 10:50:42;;;;;;;4.60;2.38;;;;;;;;;;6252442;28;20049;-75
2022/04/17 10:53:51;;;;;;;4.00;2.60;;;;;;;;;;6254982;28;20091;-74
2022/04/17 10:57:01;;;;;;;4.78;2.47;;;;;;;;;;6260704;28;20122;-75
2022/04/17 11:00:33;;;;;;;4.32;2.78;;;;;;;;;;6256706;28;20045;-74
2022/04/17 11:03:37;;;;;;;6.68;3.10;;;;;;;;;;6179844;28;20069;-76
2022/04/17 11:06:39;;;;;;;5.43;2.88;;;;;;;;;;6181161;28;20046;-79
2022/04/17 11:09:42;;;;;;;6.95;2.83;;;;;;;;;;6178751;28;20038;-80
2022/04/17 11:12:48;;;;;;;5.65;2.90;;;;;;;;;;6184533;28;20100;-83
2022/04/17 11:15:53;;;;;;;6.90;3.00;;;;;;;;;;6184885;28;20129;-78
2022/04/17 11:18:57;;;;;;;7.10;2.80;;;;;;;;;;6184429;28;20057;-78
2022/04/17 11:22:01;;;;;;;4.18;3.10;;;;;;;;;;6184298;28;20125;-78
2022/04/17 11:25:07;;;;;;;4.45;2.50;;;;;;;;;;6187442;28;20042;-79
2022/04/17 11:28:36;;;;;;;4.28;2.90;;;;;;;;;;6186365;28;20133;-77
2022/04/17 11:31:37;;;;;;;4.43;2.60;;;;;;;;;;6187522;28;20081;-77
2022/04/17 11:34:43;;;;;;;5.55;3.00;;;;;;;;;;6180238;28;20422;-80
2022/04/17 11:38:06;;;;;;;5.57;3.13;;;;;;;;;;6191771;28;20133;-79
2022/04/17 11:41:07;;;;;;;;;;;;;;;;;;6258802;28;20489;-77
2022/04/17 11:44:11;;;;;;;6.10;3.50;;;;;;;;;;6252748;28;20461;-78
2022/04/17 11:47:15;;;;;;;5.88;3.22;;;;;;;;;;6247765;28;20127;-78
2022/04/17 11:50:26;;;;;;;6.50;3.10;;;;;;;;;;6259451;28;20124;-78
2022/04/17 11:53:32;;;;;;;6.85;3.10;;;;;;;;;;6256443;28;20040;-76
2022/04/17 11:56:52;;;;;;;6.18;2.85;;;;;;;;;;6256642;28;20531;-73
2022/04/17 11:59:55;;;;;;;4.10;2.97;;;;;;;;;;6259344;28;20084;-77
2022/04/17 12:02:58;;;;;;;5.15;3.22;;;;;;;;;;6257062;28;20064;-78
2022/04/17 12:06:03;;;;;;;4.88;2.88;;;;;;;;;;6254975;28;20052;-74
2022/04/17 12:09:06;;;;;;;3.95;2.92;;;;;;;;;;6258154;28;20485;-80
2022/04/17 12:12:10;;;;;;;6.00;3.35;;;;;;;;;;6256038;28;20148;-73
2022/04/17 12:15:14;;;;;;;6.07;3.25;;;;;;;;;;6253728;28;20556;-74
2022/04/17 12:18:19;;;;;;;5.05;3.25;;;;;;;;;;6259178;28;20443;-73
2022/04/17 12:21:28;;;;;;;5.43;3.15;;;;;;;;;;6259473;28;20073;-74
2022/04/17 12:24:29;;;;;;;5.63;3.00;;;;;;;;;;6257472;28;20048;-73
2022/04/17 12:27:31;;;;;;;4.87;3.20;;;;;;;;;;6254894;28;20076;-73
2022/04/17 12:30:33;;;;;;;6.85;3.70;;;;;;;;;;6261595;28;20459;-73
2022/04/17 12:33:34;;;;;;;6.80;2.93;;;;;;;;;;6263063;28;20053;-73
2022/04/17 12:36:38;;;;;;;5.75;3.17;;;;;;;;;;6259011;28;20100;-74
2022/04/17 12:39:40;;;;;;;5.07;3.33;;;;;;;;;;6263605;28;20380;-73
2022/04/17 12:42:41;;;;;;;6.57;3.25;;;;;;;;;;6251144;28;20156;-76
2022/04/17 12:45:55;;;;;;;5.43;3.20;;;;;;;;;;6259921;28;20041;-73
2022/04/17 12:49:07;;;;;;;7.32;2.97;;;;;;;;;;6255132;28;20068;-72
2022/04/17 12:52:21;;;;;;;8.15;3.22;;;;;;;;;;6259218;28;20146;-71
2022/04/17 12:55:30;;;;;;;8.45;3.40;;;;;;;;;;6264141;28;20116;-73
2022/04/17 12:58:46;;;;;;;5.78;2.85;;;;;;;;;;6253123;28;20073;-71
2022/04/17 13:01:49;;;;;;;6.00;2.80;;;;;;;;;;6249607;28;20119;-70
2022/04/17 13:04:54;;;;;;;5.88;2.70;;;;;;;;;;6250741;28;20082;-71
2022/04/17 13:08:04;;;;;;;4.20;2.70;;;;;;;;;;6248839;28;20056;-72
2022/04/17 13:11:20;;;;;;;8.85;4.72;;;;;;;;;;6253004;28;20038;-72
2022/04/17 13:14:23;;;;;;;6.47;3.10;;;;;;;;;;6251912;28;20130;-73
2022/04/17 13:17:25;;;;;;;8.25;3.35;;;;;;;;;;6257339;28;20045;-72
2022/04/17 13:20:28;;;;;;;7.03;3.10;;;;;;;;;;6259699;28;20045;-71
2022/04/17 13:23:34;;;;;;;7.25;3.30;;;;;;;;;;6263199;28;20524;-71
2022/04/17 13:26:36;;;;;;;15.88;11.45;;;;;;;;;;6260675;28;20154;-74
2022/04/17 13:29:37;;;;;;;9.73;5.38;;;;;;;;;;6262690;28;20080;-72
2022/04/17 13:32:39;;;;;;;15.15;9.13;;;;;;;;;;6265166;28;20517;-72
2022/04/17 13:35:41;;;;;;;6.53;4.38;;;;;;;;;;6262854;28;20182;-70
2022/04/17 13:38:44;;;;;;;4.97;3.03;;;;;;;;;;6259562;28;20045;-71
2022/04/17 13:41:46;;;;;;;48.13;29.38;;;;;;;;;;6257418;28;20037;-74
2022/04/17 13:44:47;;;;;;;9.65;5.55;;;;;;;;;;6262053;28;21627;-74
2022/04/17 13:47:49;;;;;;;10.40;6.75;;;;;;;;;;6259988;28;20397;-71
2022/04/17 13:50:51;;;;;;;9.63;4.03;;;;;;;;;;6265116;28;20045;-71
2022/04/17 13:53:54;;;;;;;8.88;4.53;;;;;;;;;;6259624;28;20050;-73
2022/04/17 13:56:57;;;;;;;12.68;10.02;;;;;;;;;;6260377;28;20049;-71
2022/04/17 13:59:59;;;;;;;16.30;11.20;;;;;;;;;;6261093;28;20041;-72
2022/04/17 14:03:01;;;;;;;6.50;3.22;;;;;;;;;;6261709;28;20432;-75
2022/04/17 14:06:03;;;;;;;7.57;2.63;;;;;;;;;;6264047;28;20061;-76
2022/04/17 14:09:06;;;;;;;9.30;2.95;;;;;;;;;;6259523;28;20060;-74
2022/04/17 14:12:09;;;;;;;4.55;3.00;;;;;;;;;;6258250;28;20072;-74
2022/04/17 14:15:12;;;;;;;6.10;2.85;;;;;;;;;;6259550;28;20048;-74
2022/04/17 14:18:13;;;;;;;5.82;2.67;;;;;;;;;;6261776;28;20076;-73
2022/04/17 14:21:15;;;;;;;5.25;2.60;;;;;;;;;;6259788;28;20083;-73
2022/04/17 14:24:18;;;;;;;6.60;2.53;;;;;;;;;;6256837;28;20064;-74
2022/04/17 14:27:20;;;;;;;4.85;3.25;;;;;;;;;;6260848;28;20056;-73
2022/04/17 14:30:22;;;;;;;5.28;3.10;;;;;;;;;;6257726;28;20499;-73
2022/04/17 14:33:24;;;;;;;5.13;2.60;;;;;;;;;;6258059;28;20133;-74
2022/04/17 14:36:26;;;;;;;6.07;2.92;;;;;;;;;;6261157;28;20501;-73
2022/04/17 14:39:29;;;;;;;4.13;2.72;;;;;;;;;;6257846;28;20057;-74
2022/04/17 14:42:31;;;;;;;5.63;3.10;;;;;;;;;;6255537;28;20179;-73
2022/04/17 14:45:32;;;;;;;6.03;2.90;;;;;;;;;;6253062;28;20148;-73
2022/04/17 14:48:34;;;;;;;6.70;2.80;;;;;;;;;;6257370;28;20471;-73
2022/04/17 14:51:36;;;;;;;5.77;2.63;;;;;;;;;;6262998;28;20140;-73
2022/04/17 14:54:39;;;;;;;4.13;2.60;;;;;;;;;;6257759;28;20167;-72
2022/04/17 14:57:41;;;;;;;7.72;2.83;;;;;;;;;;6260638;28;20478;-74
2022/04/17 15:00:43;;;;;;;6.07;2.70;;;;;;;;;;6255166;28;20076;-72
2022/04/17 15:03:47;;;;;;;4.22;2.85;;;;;;;;;;6260396;28;20459;-73
2022/04/17 15:06:48;;;;;;;4.15;2.65;;;;;;;;;;6256727;28;20388;-74
2022/04/17 15:09:51;;;;;;;4.20;2.78;;;;;;;;;;6261245;28;20106;-73
2022/04/17 15:12:54;;;;;;;5.43;2.72;;;;;;;;;;6258516;28;20109;-73
2022/04/17 15:15:55;;;;;;;7.32;2.85;;;;;;;;;;6263040;28;20415;-73
2022/04/17 15:18:57;;;;;;;4.05;2.75;;;;;;;;;;6260176;28;20113;-73
2022/04/17 15:21:58;;;;;;;7.88;2.95;;;;;;;;;;6264294;28;20647;-74
2022/04/17 15:25:06;;;;;;;5.97;2.65;;;;;;;;;;6260165;28;20048;-73
2022/04/17 15:28:07;;;;;;;10.52;7.18;;;;;;;;;;6257867;28;20056;-72
2022/04/17 15:31:09;;;;;;;5.03;2.77;;;;;;;;;;6256545;28;20297;-73
2022/04/17 15:34:11;;;;;;;28.02;22.77;;;;;;;;;;6257320;28;20057;-74
2022/04/17 15:37:12;;;;;;;16.40;12.83;;;;;;;;;;6256088;28;20040;-75
2022/04/17 15:40:15;;;;;;;6.15;3.17;;;;;;;;;;6252607;28;20135;-74
2022/04/17 15:49:55;;;;;;;6.70;2.80;;;;;;;;;;6255231;28;20752;-72
2022/04/17 15:52:59;;;;;;;5.00;2.60;;;;;;;;;;6254669;28;20080;-72
2022/04/17 15:56:04;;;;;;;5.63;2.88;;;;;;;;;;6253594;28;20046;-71
2022/04/17 15:59:06;;;;;;;4.03;2.45;;;;;;;;;;6254464;28;20080;-72
2022/04/17 16:02:07;;;;;;;4.22;2.70;;;;;;;;;;6257142;28;20126;-71
2022/04/17 16:05:10;;;;;;;6.33;3.17;;;;;;;;;;6256401;28;20051;-71
2022/04/17 16:08:11;;;;;;;8.60;3.22;;;;;;;;;;6256044;28;20554;-70
2022/04/17 16:11:14;;;;;;;3.60;2.55;;;;;;;;;;6257766;28;20408;-71
2022/04/17 16:14:16;;;;;;;;;;;;;;;;;;6259652;28;20124;-71
2022/04/17 16:17:17;;;;;;;6.53;2.67;;;;;;;;;;6259420;28;20065;-71
2022/04/17 16:20:19;;;;;;;5.25;2.83;;;;;;;;;;6258434;28;20077;-73
2022/04/17 16:23:21;;;;;;;5.00;2.67;;;;;;;;;;6261960;28;20044;-71
2022/04/17 16:26:24;;;;;;;4.78;2.13;;;;;;;;;;6261209;28;20151;-74
2022/04/17 16:29:26;;;;;;;61.95;33.40;;;;;;;;;;6260859;28;20072;-74
2022/04/17 16:32:27;;;;;;;87.20;45.80;;;;;;;;;;6263405;28;20119;-73
2022/04/17 16:35:29;;;;;;;8.38;3.83;;;;;;;;;;6259841;28;20138;-71
2022/04/17 16:38:30;;;;;;;10.23;5.35;;;;;;;;;;6260266;28;20476;-74
2022/04/17 16:41:33;;;;;;;20.67;10.88;;;;;;;;;;6253718;28;20132;-72
2022/04/17 16:44:35;;;;;;;32.13;17.33;;;;;;;;;;6247289;28;20069;-74
2022/04/17 16:47:38;;;;;;;75.97;37.70;;;;;;;;;;6249338;28;20060;-73
2022/04/17 16:50:40;;;;;;;6.30;2.85;;;;;;;;;;6257896;28;20052;-72
2022/04/17 16:53:41;;;;;;;9.30;3.30;;;;;;;;;;6256593;28;20132;-72
2022/04/17 16:56:44;;;;;;;20.83;12.30;;;;;;;;;;6259553;28;20077;-72
2022/04/17 16:59:45;;;;;;;7.95;3.05;;;;;;;;;;6258856;28;20573;-73
2022/04/17 17:02:46;;;;;;;17.27;8.68;;;;;;;;;;6260755;28;20049;-74
2022/04/17 17:05:48;;;;;;;29.92;12.77;;;;;;;;;;6260602;28;20045;-71
2022/04/17 17:08:49;;;;;;;6.20;2.60;;;;;;;;;;6256112;28;20045;-74
2022/04/17 17:11:52;;;;;;;5.47;2.83;;;;;;;;;;6263262;28;20045;-73
2022/04/17 17:14:54;;;;;;;5.28;2.30;;;;;;;;;;6260474;28;20382;-72
2022/04/17 17:17:56;;;;;;;5.13;2.22;;;;;;;;;;6261352;28;20091;-71
2022/04/17 17:20:57;;;;;;;6.25;2.47;;;;;;;;;;6261273;28;20128;-74
2022/04/17 17:23:59;;;;;;;4.82;2.00;;;;;;;;;;6264641;28;20095;-73
2022/04/17 17:27:02;;;;;;;5.07;2.45;;;;;;;;;;6262654;28;20053;-74
2022/04/17 17:30:05;;;;;;;4.13;2.40;;;;;;;;;;6264736;28;20049;-72
2022/04/17 17:33:07;;;;;;;7.05;2.17;;;;;;;;;;6265539;28;20534;-75
2022/04/17 17:36:09;;;;;;;7.07;2.20;;;;;;;;;;6265030;28;20049;-75
2022/04/17 17:39:11;;;;;;;3.20;1.80;;;;;;;;;;6256720;28;20053;-73
2022/04/17 17:42:14;;;;;;;3.00;2.20;;;;;;;;;;6256011;28;20045;-74
2022/04/17 17:45:16;;;;;;;3.17;1.85;;;;;;;;;;6259233;28;20056;-73
2022/04/17 17:48:18;;;;;;;7.57;1.90;;;;;;;;;;6262982;28;20400;-73
2022/04/17 17:51:22;;;;;;;4.15;1.83;;;;;;;;;;6258930;28;20124;-74
2022/04/17 17:54:24;;;;;;;;;;;;;;;;;;6260581;28;20136;-74
2022/04/17 17:57:27;;;;;;;6.68;1.88;;;;;;;;;;6262610;28;19979;-74
2022/04/17 18:00:32;;;;;;;5.63;2.45;;;;;;;;;;6257385;28;20635;-73
2022/04/17 18:03:34;;;;;;;7.55;3.65;;;;;;;;;;6257979;28;20053;-72
2022/04/17 18:06:37;;;;;;;10.95;5.20;;;;;;;;;;6253405;28;20057;-72
2022/04/17 18:16:20;;;;;;;3.15;1.75;;;;;;;;;;6260619;28;20087;-70
2022/04/17 18:19:24;;;;;;;4.45;1.63;;;;;;;;;;6261315;28;20057;-70
2022/04/17 18:25:48;;;;;;;4.43;1.80;;;;;;;;;;6258688;28;20118;-71
2022/04/17 18:28:50;;;;;;;4.10;1.77;;;;;;;;;;6261711;28;20049;-72
2022/04/17 18:31:52;;;;;;;3.13;1.83;;;;;;;;;;6260218;28;20362;-71
2022/04/17 18:34:54;;;;;;;8.85;1.80;;;;;;;;;;6261056;28;20046;-72
2022/04/17 18:37:56;;;;;;;7.95;1.73;;;;;;;;;;6260194;28;20064;-71
2022/04/17 18:40:58;;;;;;;3.00;1.35;;;;;;;;;;6258216;28;20106;-72
2022/04/17 18:44:02;;;;;;;4.57;1.67;;;;;;;;;;6257612;28;20144;-72